sensor_id;sensor_type;location;lat;lon;timestamp;temperature;humidity
74661;SHT31;63191;39.566;2.654;2023-03-14T00:00:52;15.97;81.75
74661;SHT31;63191;39.566;2.654;2023-03-14T00:03:18;15.97;81.56
74661;SHT31;63191;39.566;2.654;2023-03-14T00:05:44;15.97;81.39
74661;SHT31;63191;39.566;2.654;2023-03-14T00:08:09;15.96;81.24
74661;SHT31;63191;39.566;2.654;2023-03-14T00:10:36;15.94;81.08
74661;SHT31;63191;39.566;2.654;2023-03-14T00:13:04;15.94;80.95
74661;SHT31;63191;39.566;2.654;2023-03-14T00:15:30;15.94;80.73
74661;SHT31;63191;39.566;2.654;2023-03-14T00:17:59;15.95;80.50
74661;SHT31;63191;39.566;2.654;2023-03-14T00:20:25;15.93;80.23
74661;SHT31;63191;39.566;2.654;2023-03-14T00:22:51;15.94;79.97
74661;SHT31;63191;39.566;2.654;2023-03-14T00:25:16;15.95;79.57
74661;SHT31;63191;39.566;2.654;2023-03-14T00:27:42;15.95;79.27
74661;SHT31;63191;39.566;2.654;2023-03-14T00:30:09;15.95;78.97
74661;SHT31;63191;39.566;2.654;2023-03-14T00:32:36;15.97;78.62
74661;SHT31;63191;39.566;2.654;2023-03-14T00:35:03;16.01;78.05
74661;SHT31;63191;39.566;2.654;2023-03-14T00:37:29;16.12;77.15
74661;SHT31;63191;39.566;2.654;2023-03-14T00:39:55;16.23;76.44
74661;SHT31;63191;39.566;2.654;2023-03-14T00:42:21;16.31;75.81
74661;SHT31;63191;39.566;2.654;2023-03-14T00:44:47;16.36;75.15
74661;SHT31;63191;39.566;2.654;2023-03-14T00:47:12;16.44;74.60
74661;SHT31;63191;39.566;2.654;2023-03-14T00:49:38;16.52;73.22
74661;SHT31;63191;39.566;2.654;2023-03-14T00:52:04;16.72;70.73
74661;SHT31;63191;39.566;2.654;2023-03-14T00:54:30;17.02;68.08
74661;SHT31;63191;39.566;2.654;2023-03-14T00:56:55;17.32;66.20
74661;SHT31;63191;39.566;2.654;2023-03-14T00:59:21;17.58;64.21
74661;SHT31;63191;39.566;2.654;2023-03-14T01:01:47;17.81;62.01
74661;SHT31;63191;39.566;2.654;2023-03-14T01:04:13;18.02;60.09
74661;SHT31;63191;39.566;2.654;2023-03-14T01:06:39;18.20;56.97
74661;SHT31;63191;39.566;2.654;2023-03-14T01:09:05;18.38;56.75
74661;SHT31;63191;39.566;2.654;2023-03-14T01:11:32;18.49;56.40
74661;SHT31;63191;39.566;2.654;2023-03-14T01:14:00;18.57;55.16
74661;SHT31;63191;39.566;2.654;2023-03-14T01:16:27;18.63;54.69
74661;SHT31;63191;39.566;2.654;2023-03-14T01:18:55;18.68;54.26
74661;SHT31;63191;39.566;2.654;2023-03-14T01:21:25;18.71;53.71
74661;SHT31;63191;39.566;2.654;2023-03-14T01:23:56;18.73;53.95
74661;SHT31;63191;39.566;2.654;2023-03-14T01:26:24;18.72;53.78
74661;SHT31;63191;39.566;2.654;2023-03-14T01:28:54;18.70;53.32
74661;SHT31;63191;39.566;2.654;2023-03-14T01:31:21;18.68;52.73
74661;SHT31;63191;39.566;2.654;2023-03-14T01:33:48;18.67;52.25
74661;SHT31;63191;39.566;2.654;2023-03-14T01:36:14;18.67;52.23
74661;SHT31;63191;39.566;2.654;2023-03-14T01:38:40;18.64;52.54
74661;SHT31;63191;39.566;2.654;2023-03-14T01:41:07;18.58;52.44
74661;SHT31;63191;39.566;2.654;2023-03-14T01:43:43;18.54;52.16
74661;SHT31;63191;39.566;2.654;2023-03-14T01:46:13;18.49;51.89
74661;SHT31;63191;39.566;2.654;2023-03-14T01:54:36;18.44;50.87
74661;SHT31;63191;39.566;2.654;2023-03-14T01:57:14;18.43;51.30
74661;SHT31;63191;39.566;2.654;2023-03-14T01:59:51;18.39;50.78
74661;SHT31;63191;39.566;2.654;2023-03-14T02:02:21;18.37;50.82
74661;SHT31;63191;39.566;2.654;2023-03-14T02:04:49;18.34;50.75
74661;SHT31;63191;39.566;2.654;2023-03-14T02:07:25;18.30;50.79
74661;SHT31;63191;39.566;2.654;2023-03-14T02:10:03;18.25;49.91
74661;SHT31;63191;39.566;2.654;2023-03-14T02:12:30;18.23;50.11
74661;SHT31;63191;39.566;2.654;2023-03-14T02:14:58;18.18;49.93
74661;SHT31;63191;39.566;2.654;2023-03-14T02:17:23;18.14;48.55
74661;SHT31;63191;39.566;2.654;2023-03-14T02:22:50;18.06;48.20
74661;SHT31;63191;39.566;2.654;2023-03-14T02:26:01;18.01;46.96
74661;SHT31;63191;39.566;2.654;2023-03-14T02:28:15;17.98;46.04
74661;SHT31;63191;39.566;2.654;2023-03-14T02:30:42;17.96;45.60
74661;SHT31;63191;39.566;2.654;2023-03-14T02:33:09;17.92;45.51
74661;SHT31;63191;39.566;2.654;2023-03-14T02:35:44;17.91;45.34
74661;SHT31;63191;39.566;2.654;2023-03-14T02:38:31;17.88;45.51
74661;SHT31;63191;39.566;2.654;2023-03-14T02:41:16;17.85;45.34
74661;SHT31;63191;39.566;2.654;2023-03-14T02:43:42;17.81;44.99
74661;SHT31;63191;39.566;2.654;2023-03-14T02:46:09;17.76;44.81
74661;SHT31;63191;39.566;2.654;2023-03-14T02:51:28;17.68;44.67
74661;SHT31;63191;39.566;2.654;2023-03-14T02:53:55;17.64;45.23
74661;SHT31;63191;39.566;2.654;2023-03-14T02:56:21;17.57;45.70
74661;SHT31;63191;39.566;2.654;2023-03-14T02:58:47;17.52;45.92
74661;SHT31;63191;39.566;2.654;2023-03-14T03:01:12;17.46;46.17
74661;SHT31;63191;39.566;2.654;2023-03-14T03:03:38;17.40;46.39
74661;SHT31;63191;39.566;2.654;2023-03-14T03:06:04;17.34;46.78
74661;SHT31;63191;39.566;2.654;2023-03-14T03:08:30;17.28;47.06
74661;SHT31;63191;39.566;2.654;2023-03-14T03:10:57;17.23;47.03
74661;SHT31;63191;39.566;2.654;2023-03-14T03:13:23;17.17;47.15
74661;SHT31;63191;39.566;2.654;2023-03-14T03:15:49;17.12;47.37
74661;SHT31;63191;39.566;2.654;2023-03-14T03:18:15;17.08;47.46
74661;SHT31;63191;39.566;2.654;2023-03-14T03:20:41;17.04;47.44
74661;SHT31;63191;39.566;2.654;2023-03-14T03:23:07;17.01;47.28
74661;SHT31;63191;39.566;2.654;2023-03-14T03:25:33;16.97;47.28
74661;SHT31;63191;39.566;2.654;2023-03-14T03:27:58;16.93;47.43
74661;SHT31;63191;39.566;2.654;2023-03-14T03:30:24;16.88;47.54
74661;SHT31;63191;39.566;2.654;2023-03-14T03:32:50;16.82;47.92
74661;SHT31;63191;39.566;2.654;2023-03-14T03:35:16;16.75;48.04
74661;SHT31;63191;39.566;2.654;2023-03-14T03:37:42;16.69;48.02
74661;SHT31;63191;39.566;2.654;2023-03-14T03:40:08;16.63;47.63
74661;SHT31;63191;39.566;2.654;2023-03-14T03:42:35;16.62;47.44
74661;SHT31;63191;39.566;2.654;2023-03-14T03:45:02;16.60;47.49
74661;SHT31;63191;39.566;2.654;2023-03-14T03:47:30;16.59;47.55
74661;SHT31;63191;39.566;2.654;2023-03-14T03:49:56;16.56;47.43
74661;SHT31;63191;39.566;2.654;2023-03-14T03:52:22;16.56;47.32
74661;SHT31;63191;39.566;2.654;2023-03-14T03:54:48;16.53;47.39
74661;SHT31;63191;39.566;2.654;2023-03-14T03:57:13;16.51;47.00
74661;SHT31;63191;39.566;2.654;2023-03-14T03:59:39;16.50;46.70
74661;SHT31;63191;39.566;2.654;2023-03-14T04:02:06;16.50;46.52
74661;SHT31;63191;39.566;2.654;2023-03-14T04:04:32;16.51;46.69
74661;SHT31;63191;39.566;2.654;2023-03-14T04:06:58;16.48;46.94
74661;SHT31;63191;39.566;2.654;2023-03-14T04:09:24;16.45;47.09
74661;SHT31;63191;39.566;2.654;2023-03-14T04:11:50;16.41;47.15
74661;SHT31;63191;39.566;2.654;2023-03-14T04:14:15;16.37;47.19
74661;SHT31;63191;39.566;2.654;2023-03-14T04:16:41;16.31;47.16
74661;SHT31;63191;39.566;2.654;2023-03-14T04:19:07;16.23;47.33
74661;SHT31;63191;39.566;2.654;2023-03-14T04:21:33;16.17;47.49
74661;SHT31;63191;39.566;2.654;2023-03-14T04:23:58;16.09;47.66
74661;SHT31;63191;39.566;2.654;2023-03-14T04:26:24;16.01;47.68
74661;SHT31;63191;39.566;2.654;2023-03-14T04:28:50;15.93;47.79
74661;SHT31;63191;39.566;2.654;2023-03-14T04:31:19;15.89;47.04
74661;SHT31;63191;39.566;2.654;2023-03-14T04:33:47;15.86;46.98
74661;SHT31;63191;39.566;2.654;2023-03-14T04:36:13;15.85;47.32
74661;SHT31;63191;39.566;2.654;2023-03-14T04:38:39;15.80;47.77
74661;SHT31;63191;39.566;2.654;2023-03-14T04:41:05;15.75;47.89
74661;SHT31;63191;39.566;2.654;2023-03-14T04:43:32;15.71;48.13
74661;SHT31;63191;39.566;2.654;2023-03-14T04:45:58;15.66;48.26
74661;SHT31;63191;39.566;2.654;2023-03-14T04:48:25;15.60;48.37
74661;SHT31;63191;39.566;2.654;2023-03-14T04:50:51;15.55;48.40
74661;SHT31;63191;39.566;2.654;2023-03-14T04:53:18;15.48;48.49
74661;SHT31;63191;39.566;2.654;2023-03-14T04:55:48;15.43;48.71
74661;SHT31;63191;39.566;2.654;2023-03-14T04:58:15;15.37;48.75
74661;SHT31;63191;39.566;2.654;2023-03-14T05:00:41;15.38;48.76
74661;SHT31;63191;39.566;2.654;2023-03-14T05:03:06;15.38;48.84
74661;SHT31;63191;39.566;2.654;2023-03-14T05:05:32;15.38;48.89
74661;SHT31;63191;39.566;2.654;2023-03-14T05:07:58;15.40;48.94
74661;SHT31;63191;39.566;2.654;2023-03-14T05:10:24;15.41;49.11
74661;SHT31;63191;39.566;2.654;2023-03-14T05:12:50;15.41;49.30
74661;SHT31;63191;39.566;2.654;2023-03-14T05:15:16;15.42;49.58
74661;SHT31;63191;39.566;2.654;2023-03-14T05:17:42;15.44;49.80
74661;SHT31;63191;39.566;2.654;2023-03-14T05:20:08;15.46;50.06
74661;SHT31;63191;39.566;2.654;2023-03-14T05:22:37;15.47;50.34
74661;SHT31;63191;39.566;2.654;2023-03-14T05:25:04;15.49;50.63
74661;SHT31;63191;39.566;2.654;2023-03-14T05:27:31;15.49;50.86
74661;SHT31;63191;39.566;2.654;2023-03-14T05:29:58;15.48;51.07
74661;SHT31;63191;39.566;2.654;2023-03-14T05:32:23;15.47;51.13
74661;SHT31;63191;39.566;2.654;2023-03-14T05:34:49;15.46;51.18
74661;SHT31;63191;39.566;2.654;2023-03-14T05:37:15;15.46;51.11
74661;SHT31;63191;39.566;2.654;2023-03-14T05:39:41;15.46;51.08
74661;SHT31;63191;39.566;2.654;2023-03-14T05:42:06;15.46;50.75
74661;SHT31;63191;39.566;2.654;2023-03-14T05:44:32;15.44;50.66
74661;SHT31;63191;39.566;2.654;2023-03-14T05:46:58;15.42;50.35
74661;SHT31;63191;39.566;2.654;2023-03-14T05:49:23;15.42;49.97
74661;SHT31;63191;39.566;2.654;2023-03-14T05:51:50;15.42;49.53
74661;SHT31;63191;39.566;2.654;2023-03-14T05:54:16;15.44;49.13
74661;SHT31;63191;39.566;2.654;2023-03-14T05:56:42;15.47;48.77
74661;SHT31;63191;39.566;2.654;2023-03-14T05:59:08;15.49;48.48
74661;SHT31;63191;39.566;2.654;2023-03-14T06:01:34;15.51;48.25
74661;SHT31;63191;39.566;2.654;2023-03-14T06:04:00;15.54;48.07
74661;SHT31;63191;39.566;2.654;2023-03-14T06:06:26;15.58;48.01
74661;SHT31;63191;39.566;2.654;2023-03-14T06:08:52;15.60;48.00
74661;SHT31;63191;39.566;2.654;2023-03-14T06:11:17;15.63;47.91
74661;SHT31;63191;39.566;2.654;2023-03-14T06:13:43;15.65;47.91
74661;SHT31;63191;39.566;2.654;2023-03-14T06:16:09;15.67;47.67
74661;SHT31;63191;39.566;2.654;2023-03-14T06:18:35;15.69;47.55
74661;SHT31;63191;39.566;2.654;2023-03-14T06:21:00;15.75;47.52
74661;SHT31;63191;39.566;2.654;2023-03-14T06:23:26;15.77;47.53
74661;SHT31;63191;39.566;2.654;2023-03-14T06:25:52;15.81;47.51
74661;SHT31;63191;39.566;2.654;2023-03-14T06:28:18;15.91;47.47
74661;SHT31;63191;39.566;2.654;2023-03-14T06:30:43;16.10;47.32
74661;SHT31;63191;39.566;2.654;2023-03-14T06:33:09;16.36;46.95
74661;SHT31;63191;39.566;2.654;2023-03-14T06:35:35;16.61;46.70
74661;SHT31;63191;39.566;2.654;2023-03-14T06:38:01;17.10;46.06
74661;SHT31;63191;39.566;2.654;2023-03-14T06:40:30;17.84;44.96
74661;SHT31;63191;39.566;2.654;2023-03-14T06:42:56;18.55;44.18
74661;SHT31;63191;39.566;2.654;2023-03-14T06:45:22;19.25;43.36
74661;SHT31;63191;39.566;2.654;2023-03-14T06:47:48;19.96;42.51
74661;SHT31;63191;39.566;2.654;2023-03-14T06:50:14;20.64;41.83
74661;SHT31;63191;39.566;2.654;2023-03-14T06:52:40;21.30;40.93
74661;SHT31;63191;39.566;2.654;2023-03-14T06:55:13;21.99;39.59
74661;SHT31;63191;39.566;2.654;2023-03-14T06:57:40;22.56;38.28
74661;SHT31;63191;39.566;2.654;2023-03-14T07:00:07;23.09;37.03
74661;SHT31;63191;39.566;2.654;2023-03-14T07:02:33;23.62;36.43
74661;SHT31;63191;39.566;2.654;2023-03-14T07:04:59;24.10;35.44
74661;SHT31;63191;39.566;2.654;2023-03-14T07:07:26;24.56;35.27
74661;SHT31;63191;39.566;2.654;2023-03-14T07:09:52;25.10;34.59
74661;SHT31;63191;39.566;2.654;2023-03-14T07:12:18;25.65;34.32
74661;SHT31;63191;39.566;2.654;2023-03-14T07:14:45;26.24;33.77
74661;SHT31;63191;39.566;2.654;2023-03-14T07:17:10;26.80;32.11
74661;SHT31;63191;39.566;2.654;2023-03-14T07:19:36;27.25;31.28
74661;SHT31;63191;39.566;2.654;2023-03-14T07:22:03;27.63;31.24
74661;SHT31;63191;39.566;2.654;2023-03-14T07:24:30;28.07;30.76
74661;SHT31;63191;39.566;2.654;2023-03-14T07:26:56;28.59;30.35
74661;SHT31;63191;39.566;2.654;2023-03-14T07:29:22;29.16;30.17
74661;SHT31;63191;39.566;2.654;2023-03-14T07:31:48;29.78;29.76
74661;SHT31;63191;39.566;2.654;2023-03-14T07:34:14;30.42;28.78
74661;SHT31;63191;39.566;2.654;2023-03-14T07:36:39;31.05;28.00
74661;SHT31;63191;39.566;2.654;2023-03-14T07:39:05;31.61;27.59
74661;SHT31;63191;39.566;2.654;2023-03-14T07:41:31;32.19;26.73
74661;SHT31;63191;39.566;2.654;2023-03-14T07:43:57;32.78;26.28
74661;SHT31;63191;39.566;2.654;2023-03-14T07:46:23;33.40;25.64
74661;SHT31;63191;39.566;2.654;2023-03-14T07:48:48;33.95;25.00
74661;SHT31;63191;39.566;2.654;2023-03-14T07:51:15;34.48;24.49
74661;SHT31;63191;39.566;2.654;2023-03-14T07:53:41;35.05;23.72
74661;SHT31;63191;39.566;2.654;2023-03-14T07:56:08;35.58;23.10
74661;SHT31;63191;39.566;2.654;2023-03-14T07:58:34;36.01;22.62
74661;SHT31;63191;39.566;2.654;2023-03-14T08:01:00;36.34;21.22
74661;SHT31;63191;39.566;2.654;2023-03-14T08:03:25;36.64;21.09
74661;SHT31;63191;39.566;2.654;2023-03-14T08:05:52;36.78;20.88
74661;SHT31;63191;39.566;2.654;2023-03-14T08:08:18;36.51;20.64
74661;SHT31;63191;39.566;2.654;2023-03-14T08:10:44;36.04;20.10
74661;SHT31;63191;39.566;2.654;2023-03-14T08:13:11;34.91;20.16
74661;SHT31;63191;39.566;2.654;2023-03-14T08:15:37;33.42;21.28
74661;SHT31;63191;39.566;2.654;2023-03-14T08:18:04;32.24;22.03
74661;SHT31;63191;39.566;2.654;2023-03-14T08:20:30;31.37;22.75
74661;SHT31;63191;39.566;2.654;2023-03-14T08:22:57;30.69;23.34
74661;SHT31;63191;39.566;2.654;2023-03-14T08:25:25;30.16;23.48
74661;SHT31;63191;39.566;2.654;2023-03-14T08:27:52;29.47;24.09
74661;SHT31;63191;39.566;2.654;2023-03-14T08:30:18;28.81;24.70
74661;SHT31;63191;39.566;2.654;2023-03-14T08:32:45;28.29;25.50
74661;SHT31;63191;39.566;2.654;2023-03-14T08:35:11;28.06;25.68
74661;SHT31;63191;39.566;2.654;2023-03-14T08:37:38;27.77;25.72
74661;SHT31;63191;39.566;2.654;2023-03-14T08:40:04;27.25;24.88
74661;SHT31;63191;39.566;2.654;2023-03-14T08:42:34;26.70;23.08
74661;SHT31;63191;39.566;2.654;2023-03-14T08:45:05;26.40;22.92
74661;SHT31;63191;39.566;2.654;2023-03-14T08:47:32;26.12;21.69
74661;SHT31;63191;39.566;2.654;2023-03-14T08:49:58;25.68;21.81
74661;SHT31;63191;39.566;2.654;2023-03-14T08:52:24;25.15;22.48
74661;SHT31;63191;39.566;2.654;2023-03-14T08:54:50;24.75;22.29
74661;SHT31;63191;39.566;2.654;2023-03-14T08:57:16;24.42;22.46
74661;SHT31;63191;39.566;2.654;2023-03-14T08:59:41;24.35;22.73
74661;SHT31;63191;39.566;2.654;2023-03-14T09:02:09;24.35;22.22
74661;SHT31;63191;39.566;2.654;2023-03-14T09:04:36;24.09;22.70
74661;SHT31;63191;39.566;2.654;2023-03-14T09:07:02;23.68;23.09
74661;SHT31;63191;39.566;2.654;2023-03-14T09:09:28;23.44;23.28
74661;SHT31;63191;39.566;2.654;2023-03-14T09:11:57;23.24;23.45
74661;SHT31;63191;39.566;2.654;2023-03-14T09:14:23;23.14;23.66
74661;SHT31;63191;39.566;2.654;2023-03-14T09:16:49;23.25;23.57
74661;SHT31;63191;39.566;2.654;2023-03-14T09:19:16;23.34;23.50
74661;SHT31;63191;39.566;2.654;2023-03-14T09:21:42;23.15;23.59
74661;SHT31;63191;39.566;2.654;2023-03-14T09:24:07;22.93;24.03
74661;SHT31;63191;39.566;2.654;2023-03-14T09:26:33;22.91;24.57
74661;SHT31;63191;39.566;2.654;2023-03-14T09:28:59;22.99;24.49
74661;SHT31;63191;39.566;2.654;2023-03-14T09:31:25;23.14;24.60
74661;SHT31;63191;39.566;2.654;2023-03-14T09:33:50;23.34;24.40
74661;SHT31;63191;39.566;2.654;2023-03-14T09:36:16;23.39;24.47
74661;SHT31;63191;39.566;2.654;2023-03-14T09:38:42;23.30;24.89
74661;SHT31;63191;39.566;2.654;2023-03-14T09:41:16;23.22;25.17
74661;SHT31;63191;39.566;2.654;2023-03-14T09:43:47;23.20;25.32
74661;SHT31;63191;39.566;2.654;2023-03-14T09:46:16;23.26;25.28
74661;SHT31;63191;39.566;2.654;2023-03-14T09:48:43;23.33;25.51
74661;SHT31;63191;39.566;2.654;2023-03-14T09:51:18;23.44;25.53
74661;SHT31;63191;39.566;2.654;2023-03-14T09:53:49;23.60;25.61
74661;SHT31;63191;39.566;2.654;2023-03-14T09:56:23;23.85;25.28
74661;SHT31;63191;39.566;2.654;2023-03-14T09:58:57;23.86;25.02
74661;SHT31;63191;39.566;2.654;2023-03-14T10:01:26;23.68;24.88
74661;SHT31;63191;39.566;2.654;2023-03-14T10:03:56;23.48;25.09
74661;SHT31;63191;39.566;2.654;2023-03-14T10:06:42;23.18;25.52
74661;SHT31;63191;39.566;2.654;2023-03-14T10:09:11;22.95;26.08
74661;SHT31;63191;39.566;2.654;2023-03-14T10:11:53;22.73;26.68
74661;SHT31;63191;39.566;2.654;2023-03-14T10:14:28;22.67;27.03
74661;SHT31;63191;39.566;2.654;2023-03-14T10:17:10;23.09;27.20
74661;SHT31;63191;39.566;2.654;2023-03-14T10:19:51;23.58;26.81
74661;SHT31;63191;39.566;2.654;2023-03-14T10:22:31;23.63;27.23
74661;SHT31;63191;39.566;2.654;2023-03-14T10:25:02;23.28;27.83
74661;SHT31;63191;39.566;2.654;2023-03-14T10:27:33;23.11;28.42
74661;SHT31;63191;39.566;2.654;2023-03-14T10:30:03;23.14;28.66
74661;SHT31;63191;39.566;2.654;2023-03-14T10:37:48;23.05;29.24
74661;SHT31;63191;39.566;2.654;2023-03-14T10:40:25;23.19;29.38
74661;SHT31;63191;39.566;2.654;2023-03-14T10:43:05;23.24;29.18
74661;SHT31;63191;39.566;2.654;2023-03-14T10:45:42;23.25;29.29
74661;SHT31;63191;39.566;2.654;2023-03-14T10:53:23;24.29;27.76
74661;SHT31;63191;39.566;2.654;2023-03-14T10:55:50;24.75;26.87
74661;SHT31;63191;39.566;2.654;2023-03-14T10:58:28;25.23;25.85
74661;SHT31;63191;39.566;2.654;2023-03-14T11:03:58;26.72;25.49
74661;SHT31;63191;39.566;2.654;2023-03-14T11:10:00;30.24;22.29
74661;SHT31;63191;39.566;2.654;2023-03-14T11:21:37;38.03;16.36
74661;SHT31;63191;39.566;2.654;2023-03-14T11:27:40;41.36;14.21
74661;SHT31;63191;39.566;2.654;2023-03-14T11:30:42;42.41;13.19
74661;SHT31;63191;39.566;2.654;2023-03-14T11:33:19;43.22;12.95
74661;SHT31;63191;39.566;2.654;2023-03-14T11:38:29;44.60;12.58
74661;SHT31;63191;39.566;2.654;2023-03-14T11:40:59;45.24;12.48
74661;SHT31;63191;39.566;2.654;2023-03-14T11:43:27;45.88;12.51
74661;SHT31;63191;39.566;2.654;2023-03-14T11:46:25;46.65;12.70
74661;SHT31;63191;39.566;2.654;2023-03-14T11:51:47;47.79;11.73
74661;SHT31;63191;39.566;2.654;2023-03-14T11:54:23;47.63;11.51
74661;SHT31;63191;39.566;2.654;2023-03-14T11:57:04;47.55;11.63
74661;SHT31;63191;39.566;2.654;2023-03-14T11:59:49;47.34;11.43
74661;SHT31;63191;39.566;2.654;2023-03-14T12:02:53;46.71;11.73
74661;SHT31;63191;39.566;2.654;2023-03-14T12:11:12;40.60;13.73
74661;SHT31;63191;39.566;2.654;2023-03-14T12:13:46;40.64;14.34
74661;SHT31;63191;39.566;2.654;2023-03-14T12:18:50;42.00;14.10
74661;SHT31;63191;39.566;2.654;2023-03-14T12:21:17;42.99;13.96
74661;SHT31;63191;39.566;2.654;2023-03-14T12:23:50;43.86;13.62
74661;SHT31;63191;39.566;2.654;2023-03-14T12:26:22;44.60;13.12
74661;SHT31;63191;39.566;2.654;2023-03-14T12:34:04;44.92;11.35
74661;SHT31;63191;39.566;2.654;2023-03-14T12:37:12;44.51;10.37
74661;SHT31;63191;39.566;2.654;2023-03-14T12:43:01;44.15;10.54
74661;SHT31;63191;39.566;2.654;2023-03-14T12:45:31;43.91;10.50
74661;SHT31;63191;39.566;2.654;2023-03-14T12:48:08;43.51;10.69
74661;SHT31;63191;39.566;2.654;2023-03-14T12:51:00;43.27;11.17
74661;SHT31;63191;39.566;2.654;2023-03-14T12:56:28;42.95;11.27
74661;SHT31;63191;39.566;2.654;2023-03-14T12:59:26;42.60;11.20
74661;SHT31;63191;39.566;2.654;2023-03-14T13:01:55;42.60;11.62
74661;SHT31;63191;39.566;2.654;2023-03-14T13:04:34;42.82;11.41
74661;SHT31;63191;39.566;2.654;2023-03-14T13:10:21;43.18;11.73
74661;SHT31;63191;39.566;2.654;2023-03-14T13:12:56;43.50;11.33
74661;SHT31;63191;39.566;2.654;2023-03-14T13:15:41;43.52;11.07
74661;SHT31;63191;39.566;2.654;2023-03-14T13:18:14;42.94;10.85
74661;SHT31;63191;39.566;2.654;2023-03-14T13:23:33;42.47;11.29
74661;SHT31;63191;39.566;2.654;2023-03-14T13:26:32;42.04;11.32
74661;SHT31;63191;39.566;2.654;2023-03-14T13:29:08;41.57;11.47
74661;SHT31;63191;39.566;2.654;2023-03-14T13:31:53;41.11;11.46
74661;SHT31;63191;39.566;2.654;2023-03-14T13:34:24;40.67;11.76
74661;SHT31;63191;39.566;2.654;2023-03-14T13:37:01;40.15;11.42
74661;SHT31;63191;39.566;2.654;2023-03-14T13:39:27;39.46;11.58
74661;SHT31;63191;39.566;2.654;2023-03-14T13:42:00;38.83;12.01
74661;SHT31;63191;39.566;2.654;2023-03-14T13:46:59;36.83;12.24
74661;SHT31;63191;39.566;2.654;2023-03-14T13:49:27;35.51;12.76
74661;SHT31;63191;39.566;2.654;2023-03-14T13:51:57;34.14;13.28
74661;SHT31;63191;39.566;2.654;2023-03-14T13:54:25;32.64;14.26
74661;SHT31;63191;39.566;2.654;2023-03-14T13:56:59;31.27;15.49
74661;SHT31;63191;39.566;2.654;2023-03-14T13:59:28;30.13;16.35
74661;SHT31;63191;39.566;2.654;2023-03-14T14:01:56;29.21;16.82
74661;SHT31;63191;39.566;2.654;2023-03-14T14:04:45;28.41;17.84
74661;SHT31;63191;39.566;2.654;2023-03-14T14:07:13;27.72;17.95
74661;SHT31;63191;39.566;2.654;2023-03-14T14:09:46;27.09;18.07
74661;SHT31;63191;39.566;2.654;2023-03-14T14:14:54;26.15;19.27
74661;SHT31;63191;39.566;2.654;2023-03-14T14:20:07;25.37;20.68
74661;SHT31;63191;39.566;2.654;2023-03-14T14:22:43;25.01;21.21
74661;SHT31;63191;39.566;2.654;2023-03-14T14:25:12;24.68;21.51
74661;SHT31;63191;39.566;2.654;2023-03-14T14:27:43;24.42;21.85
74661;SHT31;63191;39.566;2.654;2023-03-14T14:32:43;24.04;22.28
74661;SHT31;63191;39.566;2.654;2023-03-14T14:35:11;23.89;22.72
74661;SHT31;63191;39.566;2.654;2023-03-14T14:37:58;23.79;22.88
74661;SHT31;63191;39.566;2.654;2023-03-14T14:40:25;23.59;22.56
74661;SHT31;63191;39.566;2.654;2023-03-14T14:43:02;23.30;22.85
74661;SHT31;63191;39.566;2.654;2023-03-14T14:45:29;23.01;23.23
74661;SHT31;63191;39.566;2.654;2023-03-14T14:50:31;22.76;23.66
74661;SHT31;63191;39.566;2.654;2023-03-14T14:53:03;22.67;23.84
74661;SHT31;63191;39.566;2.654;2023-03-14T14:56:13;22.47;23.88
74661;SHT31;63191;39.566;2.654;2023-03-14T14:58:47;22.28;24.03
74661;SHT31;63191;39.566;2.654;2023-03-14T15:01:18;22.08;24.31
74661;SHT31;63191;39.566;2.654;2023-03-14T15:03:55;21.92;24.62
74661;SHT31;63191;39.566;2.654;2023-03-14T15:06:21;21.80;24.96
74661;SHT31;63191;39.566;2.654;2023-03-14T15:08:52;21.74;25.18
74661;SHT31;63191;39.566;2.654;2023-03-14T15:11:21;21.71;25.35
74661;SHT31;63191;39.566;2.654;2023-03-14T15:13:50;21.71;25.48
74661;SHT31;63191;39.566;2.654;2023-03-14T15:16:18;21.70;25.59
74661;SHT31;63191;39.566;2.654;2023-03-14T15:18:49;21.74;25.77
74661;SHT31;63191;39.566;2.654;2023-03-14T15:21:20;21.74;25.74
74661;SHT31;63191;39.566;2.654;2023-03-14T15:23:47;21.75;25.67
74661;SHT31;63191;39.566;2.654;2023-03-14T15:26:14;21.72;26.43
74661;SHT31;63191;39.566;2.654;2023-03-14T15:28:47;21.67;28.55
74661;SHT31;63191;39.566;2.654;2023-03-14T15:31:14;21.56;28.89
74661;SHT31;63191;39.566;2.654;2023-03-14T15:33:42;21.42;28.61
74661;SHT31;63191;39.566;2.654;2023-03-14T15:36:26;21.31;30.10
74661;SHT31;63191;39.566;2.654;2023-03-14T15:38:56;21.22;28.49
74661;SHT31;63191;39.566;2.654;2023-03-14T15:41:23;21.13;27.45
74661;SHT31;63191;39.566;2.654;2023-03-14T15:43:50;21.04;27.87
74661;SHT31;63191;39.566;2.654;2023-03-14T15:46:16;20.96;27.54
74661;SHT31;63191;39.566;2.654;2023-03-14T15:48:46;20.89;27.64
74661;SHT31;63191;39.566;2.654;2023-03-14T15:51:12;20.83;27.95
74661;SHT31;63191;39.566;2.654;2023-03-14T15:53:38;20.77;28.08
74661;SHT31;63191;39.566;2.654;2023-03-14T15:56:05;20.72;27.90
74661;SHT31;63191;39.566;2.654;2023-03-14T15:58:33;20.66;28.15
74661;SHT31;63191;39.566;2.654;2023-03-14T16:01:05;20.63;27.91
74661;SHT31;63191;39.566;2.654;2023-03-14T16:03:36;20.55;27.73
74661;SHT31;63191;39.566;2.654;2023-03-14T16:06:02;20.46;27.63
74661;SHT31;63191;39.566;2.654;2023-03-14T16:08:28;20.37;27.83
74661;SHT31;63191;39.566;2.654;2023-03-14T16:10:55;20.33;28.09
74661;SHT31;63191;39.566;2.654;2023-03-14T16:13:24;20.30;28.04
74661;SHT31;63191;39.566;2.654;2023-03-14T16:18:26;20.22;27.87
74661;SHT31;63191;39.566;2.654;2023-03-14T16:20:55;20.17;28.06
74661;SHT31;63191;39.566;2.654;2023-03-14T16:23:31;20.14;28.26
74661;SHT31;63191;39.566;2.654;2023-03-14T16:25:58;20.12;28.17
74661;SHT31;63191;39.566;2.654;2023-03-14T16:28:29;20.09;28.11
74661;SHT31;63191;39.566;2.654;2023-03-14T16:31:05;20.06;27.86
74661;SHT31;63191;39.566;2.654;2023-03-14T16:33:34;20.00;28.03
74661;SHT31;63191;39.566;2.654;2023-03-14T16:36:01;19.97;28.41
74661;SHT31;63191;39.566;2.654;2023-03-14T16:38:32;19.92;28.24
74661;SHT31;63191;39.566;2.654;2023-03-14T16:41:03;19.88;28.21
74661;SHT31;63191;39.566;2.654;2023-03-14T16:43:35;19.84;28.44
74661;SHT31;63191;39.566;2.654;2023-03-14T16:46:01;19.81;28.65
74661;SHT31;63191;39.566;2.654;2023-03-14T16:48:29;19.76;28.79
74661;SHT31;63191;39.566;2.654;2023-03-14T16:50:55;19.71;28.82
74661;SHT31;63191;39.566;2.654;2023-03-14T16:53:21;19.66;29.01
74661;SHT31;63191;39.566;2.654;2023-03-14T16:55:48;19.58;29.12
74661;SHT31;63191;39.566;2.654;2023-03-14T16:58:16;19.47;29.36
74661;SHT31;63191;39.566;2.654;2023-03-14T17:00:46;19.37;29.54
74661;SHT31;63191;39.566;2.654;2023-03-14T17:03:13;19.31;29.62
74661;SHT31;63191;39.566;2.654;2023-03-14T17:05:47;19.25;29.93
74661;SHT31;63191;39.566;2.654;2023-03-14T17:08:16;19.17;30.36
74661;SHT31;63191;39.566;2.654;2023-03-14T17:10:44;19.10;30.49